الصفحة الرئيسية
METAR-TAF:

METAR-TAF

مطار :

مطار البحرين الدولي

البحرين, البحرين

دائرة عرض: 26-16N, خط طول: 050-39E, ارتفاع: 2 متر

مراقبة الطقس الحالي

تاريخ ووقت الإصدار 15 دقيقة قبل الساعة 10:30UTC
ريح 12 عقدة من الشمال/الشمال الغربي
درجة الحرارة 24°درجة مئوية
الرطوبة 57%
ضغط 1014 hPa
الرؤية 10 كم أو أكثر
الغيوم لا تقل 1500 م ولا وجود لمزنة ركامية السحاب الأسود

METAR: OBBI 121030Z 33012KT CAVOK 24/15 Q1014 NOSIG

زمن: 13:45 (10:45 UTC)

توقعات

تاريخ ووقت الإصدار 5ساعات و 45 دقيقة قبل الساعة 05:00UTC
التوقعات صالحة من12 الساعة 06 UTC إلى 13 الساعة 12 UTC
ريح 12 عقدة من الشمال/الشمال الغربي
الرؤية 10 كم أو أكثر
الغيوم لا تقل 1500 م ولا وجود لمزنة ركامية السحاب الأسود
أصبح
من 12 الساعة 22 UTC إلى 13 الساعة 00 UTC
ريح 8 عقدة من الجنوب/الجنوب الشرقي
مؤقت
من 13 الساعة 04 UTC إلى 13 الساعة 12 UTC
الرؤية: 5000 متر
غيوم قليلة على ارتفاع 1000 قدم
غيوم متفرقة على ارتفاع 3000 قدم
غيوم مفككة على ارتفاع 8000 قدم
مطر

TAF: OBBI 120500Z 1206/1312 33012KT CAVOK BECMG 1222/1300 16008KT TEMPO 1304/1312 5000 RA FEW010 SCT030 BKN080

أرصاد الطقس والتوقعات من أكثر من 4000 مطار (تقارير الطقس للمطار METAR والتنبؤ بالطقس بالمطارTAF).

المحطات المتاحة هي النقط الصفراء والحمراء على الخريطة.

حرك المؤشر فوق النقطة لمعرفة اسم المحطة.

ثم انقر لمعرفة أرصاد وتوقعات الطقس.

لتغيير الخارطة: اضغط على الأزرار الخضراء مع رمز الصليب الأسود للتكبير. على الزر الأخضر مع شرطة للتصغير، أو على الأسهم الخضراء للخرائط المجاورة.


METAR-TAF: